createdAt,value
2022-10-19T00:02:25.816Z,10.98
2022-10-19T00:04:52.429Z,11.01
2022-10-19T00:07:19.049Z,11.08
2022-10-19T00:09:45.929Z,11.04
2022-10-19T00:12:13.369Z,11.03
2022-10-19T00:14:39.962Z,11.14
2022-10-19T00:17:06.749Z,11.10
2022-10-19T00:19:34.074Z,10.93
2022-10-19T00:22:00.664Z,11.37
2022-10-19T00:24:27.382Z,11.31
2022-10-19T00:26:53.993Z,11.26
2022-10-19T00:29:20.634Z,11.40
2022-10-19T00:31:52.088Z,11.30
2022-10-19T00:34:19.195Z,11.23
2022-10-19T00:36:46.606Z,11.40
2022-10-19T00:39:15.414Z,11.21
2022-10-19T00:41:42.689Z,11.32
2022-10-19T00:44:12.271Z,11.44
2022-10-19T00:46:41.528Z,11.29
2022-10-19T00:49:12.965Z,11.47
2022-10-19T00:51:46.038Z,11.54
2022-10-19T00:54:13.199Z,11.51
2022-10-19T00:56:41.423Z,11.38
2022-10-19T00:59:08.981Z,11.32
2022-10-19T01:01:35.814Z,11.23
2022-10-19T01:04:03.386Z,11.24
2022-10-19T01:06:30.282Z,11.41
2022-10-19T01:08:56.985Z,11.42
2022-10-19T01:11:48.704Z,11.21
2022-10-19T01:14:33.597Z,11.22
2022-10-19T01:17:00.183Z,11.24
2022-10-19T01:19:40.249Z,11.14
2022-10-19T01:22:23.421Z,11.21
2022-10-19T01:25:21.797Z,11.30
2022-10-19T01:28:11.718Z,11.29
2022-10-19T01:31:36.877Z,11.05
2022-10-19T01:34:05.126Z,10.99
2022-10-19T01:36:46.859Z,11.01
2022-10-19T01:39:19.236Z,10.76
2022-10-19T01:41:54.447Z,10.86
2022-10-19T01:44:31.890Z,10.80
2022-10-19T01:47:03.117Z,10.70
2022-10-19T01:49:34.764Z,10.58
2022-10-19T01:52:04.428Z,10.46
2022-10-19T01:54:35.412Z,10.43
2022-10-19T01:57:03.169Z,10.31
2022-10-19T01:59:30.573Z,10.21
2022-10-19T02:01:57.625Z,10.29
2022-10-19T02:04:25.658Z,10.45
2022-10-19T02:06:53.488Z,10.47
2022-10-19T02:09:20.410Z,10.39
2022-10-19T02:11:56.119Z,10.31
2022-10-19T02:14:27.830Z,10.30
2022-10-19T02:17:10.526Z,10.25
2022-10-19T02:19:37.572Z,10.17
2022-10-19T02:22:04.541Z,10.21
2022-10-19T02:24:31.354Z,10.19
2022-10-19T02:26:58.373Z,10.14
2022-10-19T02:29:24.974Z,9.87
2022-10-19T02:31:51.589Z,10.01
2022-10-19T02:34:18.292Z,10.00
2022-10-19T02:36:45.068Z,9.95
2022-10-19T02:39:11.742Z,9.92
2022-10-19T02:41:47.161Z,9.79
2022-10-19T02:44:23.963Z,9.87
2022-10-19T02:46:55.667Z,9.68
2022-10-19T02:49:22.590Z,9.66
2022-10-19T02:52:00.738Z,9.66
2022-10-19T02:54:27.617Z,9.73
2022-10-19T02:56:54.852Z,9.79
2022-10-19T02:59:21.534Z,9.70
2022-10-19T03:01:48.189Z,9.66
2022-10-19T03:04:14.966Z,9.57
2022-10-19T03:06:41.714Z,9.54
2022-10-19T03:09:08.793Z,9.43
2022-10-19T03:11:35.462Z,9.59
2022-10-19T03:14:02.203Z,9.66
2022-10-19T03:16:28.812Z,9.62
2022-10-19T03:18:55.426Z,9.68
2022-10-19T03:21:22.052Z,9.75
2022-10-19T03:23:48.682Z,9.74
2022-10-19T03:26:16.498Z,9.68
2022-10-19T03:28:43.384Z,9.61
2022-10-19T03:31:10.210Z,9.78
2022-10-19T03:33:36.795Z,9.79
2022-10-19T03:36:34.057Z,9.84
2022-10-19T03:39:03.673Z,9.73
2022-10-19T03:41:32.911Z,9.79
2022-10-19T03:46:27.034Z,9.74
2022-10-19T03:48:54.133Z,9.83
2022-10-19T03:51:25.939Z,9.81
2022-10-19T03:54:13.458Z,9.85
2022-10-19T03:56:40.142Z,9.86
2022-10-19T03:59:07.454Z,9.80
2022-10-19T04:01:39.714Z,9.89
2022-10-19T04:04:10.059Z,9.86
2022-10-19T04:06:38.565Z,9.84
2022-10-19T04:09:06.605Z,9.86
2022-10-19T04:11:34.842Z,9.88
2022-10-19T04:14:02.351Z,9.79
2022-10-19T04:16:30.349Z,9.81
2022-10-19T04:18:57.155Z,9.81
2022-10-19T04:21:26.169Z,9.75
2022-10-19T04:23:56.950Z,9.71
2022-10-19T04:26:23.773Z,9.75
2022-10-19T04:28:50.529Z,9.80
2022-10-19T04:31:17.306Z,9.86
2022-10-19T04:33:44.122Z,9.71
2022-10-19T04:36:11.947Z,9.75
2022-10-19T04:38:39.107Z,9.81
2022-10-19T04:41:11.269Z,9.79
2022-10-19T04:43:38.328Z,9.84
2022-10-19T04:46:10.972Z,9.93
2022-10-19T04:48:38.774Z,9.88
2022-10-19T04:51:06.280Z,9.88
2022-10-19T04:53:33.726Z,9.95
2022-10-19T04:56:00.877Z,9.93
2022-10-19T04:58:27.559Z,9.88
2022-10-19T05:00:54.200Z,9.92
2022-10-19T05:03:20.873Z,9.91
2022-10-19T05:05:47.567Z,9.90
2022-10-19T05:08:14.295Z,9.84
2022-10-19T05:10:44.258Z,9.87
2022-10-19T05:13:14.233Z,9.86
2022-10-19T05:15:40.855Z,9.90
2022-10-19T05:18:07.572Z,9.96
2022-10-19T05:20:34.244Z,9.96
2022-10-19T05:23:06.138Z,9.97
2022-10-19T05:25:34.070Z,10.00
2022-10-19T05:28:00.743Z,9.96
2022-10-19T05:30:27.354Z,9.91
2022-10-19T05:32:54.059Z,10.05
2022-10-19T05:35:22.618Z,10.18
2022-10-19T05:37:54.744Z,10.29
2022-10-19T05:40:21.480Z,10.33
2022-10-19T05:42:48.191Z,10.38
2022-10-19T05:45:15.033Z,10.48
2022-10-19T05:47:41.598Z,10.53
2022-10-19T05:50:08.681Z,10.58
2022-10-19T05:52:35.284Z,10.57
2022-10-19T05:55:01.945Z,10.61
2022-10-19T05:57:28.647Z,10.66
2022-10-19T05:59:58.386Z,10.68
2022-10-19T06:02:27.931Z,10.67
2022-10-19T06:04:54.527Z,10.56
2022-10-19T06:07:21.122Z,10.71
2022-10-19T06:09:48.094Z,10.67
2022-10-19T06:12:16.219Z,10.75
2022-10-19T06:14:43.229Z,10.69
2022-10-19T06:17:09.915Z,10.70
2022-10-19T06:19:36.841Z,10.84
2022-10-19T06:22:03.529Z,10.84
2022-10-19T06:24:30.312Z,10.96
2022-10-19T06:26:57.014Z,10.89
2022-10-19T06:29:23.774Z,10.91
2022-10-19T06:31:50.580Z,10.78
2022-10-19T06:34:17.321Z,10.86
2022-10-19T06:36:44.095Z,10.88
2022-10-19T06:39:13.447Z,10.79
2022-10-19T06:41:40.179Z,10.72
2022-10-19T06:44:06.812Z,10.87
2022-10-19T06:46:33.989Z,10.88
2022-10-19T06:49:01.876Z,10.93
2022-10-19T06:51:29.842Z,10.92
2022-10-19T06:53:57.102Z,10.91
2022-10-19T06:56:24.944Z,10.92
2022-10-19T06:58:51.867Z,10.88
2022-10-19T07:01:18.620Z,10.94
2022-10-19T07:03:45.406Z,10.89
2022-10-19T07:06:13.335Z,10.90
2022-10-19T07:08:42.072Z,11.01
2022-10-19T07:11:11.516Z,11.00
2022-10-19T07:13:38.819Z,10.92
2022-10-19T07:16:08.539Z,11.02
2022-10-19T07:18:36.026Z,11.16
2022-10-19T07:21:05.193Z,11.10
2022-10-19T07:23:33.475Z,11.22
2022-10-19T07:26:07.145Z,11.34
2022-10-19T07:28:34.482Z,11.60
2022-10-19T07:31:08.918Z,11.59
2022-10-19T07:33:35.809Z,11.85
2022-10-19T07:36:04.415Z,11.86
2022-10-19T07:38:32.035Z,11.41
2022-10-19T07:41:10.346Z,11.58
2022-10-19T07:43:36.977Z,11.64
2022-10-19T07:46:17.615Z,11.57
2022-10-19T07:48:44.553Z,11.73
2022-10-19T07:51:12.607Z,11.95
2022-10-19T07:53:39.753Z,11.57
2022-10-19T07:56:09.244Z,11.76
2022-10-19T07:58:36.708Z,11.85
2022-10-19T08:01:14.893Z,11.75
2022-10-19T08:06:28.760Z,11.67
2022-10-19T08:08:55.936Z,11.43
2022-10-19T08:11:25.464Z,11.40
2022-10-19T08:13:52.647Z,11.45
2022-10-19T08:16:28.150Z,11.56
2022-10-19T08:19:00.293Z,11.32
2022-10-19T08:21:27.975Z,11.38
2022-10-19T08:23:54.994Z,11.29
2022-10-19T08:26:22.074Z,11.41
2022-10-19T08:28:48.942Z,11.56
2022-10-19T08:31:18.312Z,11.58
2022-10-19T08:33:45.263Z,11.53
2022-10-19T08:36:13.553Z,11.83
2022-10-19T08:38:41.442Z,11.92
2022-10-19T08:41:26.437Z,11.66
2022-10-19T08:43:58.595Z,11.78
2022-10-19T08:46:33.763Z,11.48
2022-10-19T08:49:00.701Z,11.88
2022-10-19T08:51:28.445Z,11.60
2022-10-19T08:53:57.914Z,11.56
2022-10-19T08:56:50.895Z,11.62
2022-10-19T08:59:30.877Z,11.53
2022-10-19T09:02:12.526Z,11.91
2022-10-19T09:04:47.968Z,11.80
2022-10-19T09:07:17.493Z,11.52
2022-10-19T09:09:52.115Z,11.52
2022-10-19T09:12:24.689Z,11.89
2022-10-19T09:14:59.208Z,12.01
2022-10-19T09:17:26.068Z,12.08
2022-10-19T09:19:53.030Z,12.13
2022-10-19T09:22:25.123Z,12.24
2022-10-19T09:24:53.314Z,12.20
2022-10-19T09:27:40.170Z,12.15
2022-10-19T09:30:16.002Z,12.02
2022-10-19T09:32:42.849Z,12.12
2022-10-19T09:35:29.898Z,12.07
2022-10-19T09:37:57.028Z,11.79
2022-10-19T09:40:29.279Z,11.64
2022-10-19T09:42:59.445Z,11.54
2022-10-19T09:45:34.165Z,11.51
2022-10-19T09:48:12.763Z,11.64
2022-10-19T09:50:43.433Z,11.93
2022-10-19T09:53:20.626Z,12.33
2022-10-19T09:55:51.384Z,12.44
2022-10-19T09:58:20.268Z,12.52
2022-10-19T10:00:52.375Z,12.27
2022-10-19T10:03:40.547Z,12.23
2022-10-19T10:06:17.610Z,11.99
2022-10-19T10:08:47.673Z,12.24
2022-10-19T10:11:25.897Z,12.18
2022-10-19T10:13:54.767Z,12.37
2022-10-19T10:16:23.118Z,12.35
2022-10-19T10:18:58.639Z,12.16
2022-10-19T10:21:28.867Z,12.28
2022-10-19T10:24:11.897Z,12.37
2022-10-19T10:26:46.466Z,12.55
2022-10-19T10:29:29.165Z,12.44
2022-10-19T10:32:06.213Z,12.46
2022-10-19T10:34:45.669Z,12.24
2022-10-19T10:37:43.774Z,12.55
2022-10-19T10:40:28.456Z,12.70
2022-10-19T10:42:58.250Z,12.60
2022-10-19T10:45:34.606Z,12.60
2022-10-19T10:48:15.561Z,12.55
2022-10-19T10:50:42.198Z,12.41
2022-10-19T10:53:31.500Z,12.60
2022-10-19T10:55:58.280Z,12.50
2022-10-19T10:58:47.683Z,12.43
2022-10-19T11:01:24.538Z,12.59
2022-10-19T11:03:56.113Z,12.52
2022-10-19T11:06:26.069Z,12.79
2022-10-19T11:09:04.860Z,12.71
2022-10-19T11:11:37.189Z,12.87
2022-10-19T11:14:22.639Z,12.90
2022-10-19T11:16:50.625Z,13.03
2022-10-19T11:19:35.357Z,12.76
2022-10-19T11:22:17.006Z,12.72
2022-10-19T11:25:02.448Z,12.99
2022-10-19T11:28:08.071Z,13.16
2022-10-19T11:30:42.500Z,13.26
2022-10-19T11:33:20.186Z,12.81
2022-10-19T11:36:33.424Z,12.96
2022-10-19T11:39:18.668Z,13.05
2022-10-19T11:42:00.560Z,13.11
2022-10-19T11:44:51.616Z,13.15
2022-10-19T11:47:43.205Z,13.05
2022-10-19T11:50:25.112Z,13.17
2022-10-19T11:53:16.734Z,13.11
2022-10-19T11:56:11.824Z,13.12
2022-10-19T11:58:38.433Z,13.34
2022-10-19T12:01:20.986Z,13.05
2022-10-19T12:04:15.070Z,13.05
2022-10-19T12:06:56.271Z,12.93
2022-10-19T12:09:28.739Z,13.17
2022-10-19T12:12:15.961Z,13.26
2022-10-19T12:14:44.234Z,13.58
2022-10-19T12:17:15.458Z,13.50
2022-10-19T12:19:48.225Z,13.48
2022-10-19T12:22:22.779Z,13.56
2022-10-19T12:24:53.297Z,13.54
2022-10-19T12:27:29.195Z,13.57
2022-10-19T12:29:58.938Z,13.44
2022-10-19T12:32:27.444Z,13.29
2022-10-19T12:35:04.642Z,13.25
2022-10-19T12:37:41.848Z,13.38
2022-10-19T12:40:23.495Z,13.16
2022-10-19T12:42:57.309Z,13.27
2022-10-19T12:45:37.022Z,13.53
2022-10-19T12:48:12.676Z,13.41
2022-10-19T12:50:48.452Z,13.47
2022-10-19T12:53:49.164Z,13.45
2022-10-19T12:56:19.990Z,13.34
2022-10-19T12:58:47.603Z,13.06
2022-10-19T13:01:23.881Z,12.94
2022-10-19T13:03:54.538Z,12.85
2022-10-19T13:06:24.210Z,12.80
2022-10-19T13:08:53.604Z,12.80
2022-10-19T13:11:20.754Z,12.86
2022-10-19T13:14:06.526Z,12.79
2022-10-19T13:16:56.770Z,12.78
2022-10-19T13:19:23.754Z,12.74
2022-10-19T13:22:03.382Z,12.65
2022-10-19T13:24:35.879Z,12.75
2022-10-19T13:27:02.468Z,12.74
2022-10-19T13:29:40.915Z,12.82
2022-10-19T13:32:37.200Z,12.64
2022-10-19T13:35:23.096Z,12.82
2022-10-19T13:38:12.172Z,12.73
2022-10-19T13:40:56.012Z,12.69
2022-10-19T13:43:29.581Z,12.66
2022-10-19T13:46:01.997Z,12.70
2022-10-19T13:48:34.861Z,12.74
2022-10-19T13:51:27.101Z,12.74
2022-10-19T13:54:20.159Z,12.62
2022-10-19T13:57:34.446Z,12.54
2022-10-19T14:00:03.803Z,12.53
2022-10-19T14:03:02.183Z,12.53
2022-10-19T14:05:52.710Z,12.54
2022-10-19T14:08:38.101Z,12.63
2022-10-19T14:11:16.230Z,12.64
2022-10-19T14:13:43.523Z,12.48
2022-10-19T14:16:20.932Z,12.40
2022-10-19T14:18:57.408Z,12.31
2022-10-19T14:21:32.771Z,12.33
2022-10-19T14:23:59.955Z,12.27
2022-10-19T14:26:31.114Z,12.27
2022-10-19T14:28:59.123Z,12.25
2022-10-19T14:31:31.958Z,12.20
2022-10-19T14:34:02.352Z,12.29
2022-10-19T14:36:35.308Z,12.28
2022-10-19T14:39:02.008Z,12.06
2022-10-19T14:41:28.660Z,12.23
2022-10-19T14:43:56.587Z,12.13
2022-10-19T14:46:34.404Z,12.05
2022-10-19T14:49:03.338Z,12.12
2022-10-19T14:51:40.500Z,12.00
2022-10-19T14:54:32.240Z,12.02
2022-10-19T14:57:02.105Z,12.05
2022-10-19T14:59:38.484Z,12.00
2022-10-19T15:02:22.666Z,11.90
2022-10-19T15:04:49.971Z,11.94
2022-10-19T15:07:30.231Z,11.95
2022-10-19T15:09:59.157Z,11.94
2022-10-19T15:12:28.969Z,11.88
2022-10-19T15:14:56.266Z,11.97
2022-10-19T15:17:28.415Z,11.98
2022-10-19T15:19:56.259Z,11.96
2022-10-19T15:22:28.104Z,11.80
2022-10-19T15:25:06.649Z,11.92
2022-10-19T15:27:34.568Z,11.94
2022-10-19T15:30:29.702Z,11.90
2022-10-19T15:33:10.688Z,11.89
2022-10-19T15:35:39.081Z,11.87
2022-10-19T15:38:26.062Z,11.80
2022-10-19T15:41:00.739Z,11.75
2022-10-19T15:43:30.358Z,11.69
2022-10-19T15:46:04.442Z,11.67
2022-10-19T15:48:52.317Z,11.60
2022-10-19T15:51:24.774Z,11.51
2022-10-19T15:53:59.395Z,11.41
2022-10-19T15:56:27.719Z,11.35
2022-10-19T15:58:59.011Z,11.35
2022-10-19T16:01:28.274Z,11.30
2022-10-19T16:03:55.251Z,11.32
2022-10-19T16:06:25.448Z,11.22
2022-10-19T16:08:54.160Z,11.27
2022-10-19T16:11:22.984Z,11.19
2022-10-19T16:13:49.647Z,11.22
2022-10-19T16:16:25.033Z,11.16
2022-10-19T16:18:52.388Z,11.21
2022-10-19T16:21:26.210Z,11.08
2022-10-19T16:23:52.980Z,11.17
2022-10-19T16:26:19.741Z,10.87
2022-10-19T16:28:48.677Z,11.10
2022-10-19T16:31:15.814Z,11.11
2022-10-19T16:33:42.454Z,11.08
2022-10-19T16:36:09.404Z,11.07
2022-10-19T16:38:36.777Z,11.07
2022-10-19T16:41:06.161Z,10.94
2022-10-19T16:43:33.025Z,10.93
2022-10-19T16:45:59.841Z,10.96
2022-10-19T16:48:27.207Z,10.86
2022-10-19T16:51:28.820Z,10.92
2022-10-19T16:53:57.386Z,10.81
2022-10-19T16:56:25.806Z,10.82
2022-10-19T16:59:03.135Z,10.61
2022-10-19T17:01:30.709Z,10.43
2022-10-19T17:03:57.865Z,10.15
2022-10-19T17:06:25.252Z,10.24
2022-10-19T17:09:29.868Z,10.30
2022-10-19T17:11:39.703Z,10.29
2022-10-19T17:14:08.782Z,10.39
2022-10-19T17:16:36.499Z,10.36
2022-10-19T17:19:04.837Z,10.23
2022-10-19T17:21:33.876Z,10.34
2022-10-19T17:24:02.550Z,10.25
2022-10-19T17:26:30.421Z,10.25
2022-10-19T17:28:57.481Z,10.30
2022-10-19T17:31:24.183Z,10.31
2022-10-19T17:33:51.068Z,10.25
2022-10-19T17:36:25.282Z,10.13
2022-10-19T17:38:56.616Z,10.16
2022-10-19T17:41:23.782Z,10.08
2022-10-19T17:43:54.224Z,10.03
2022-10-19T17:46:23.023Z,10.02
2022-10-19T17:48:49.819Z,9.94
2022-10-19T17:51:19.530Z,9.94
2022-10-19T17:53:47.927Z,10.01
2022-10-19T17:56:19.628Z,9.98
2022-10-19T17:58:46.440Z,9.92
2022-10-19T18:01:14.410Z,9.93
2022-10-19T18:03:41.186Z,9.85
2022-10-19T18:06:13.612Z,9.80
2022-10-19T18:08:45.172Z,9.63
2022-10-19T18:11:14.362Z,9.61
2022-10-19T18:13:41.599Z,9.24
2022-10-19T18:16:11.088Z,9.32
2022-10-19T18:18:39.878Z,9.00
2022-10-19T18:21:10.407Z,8.92
2022-10-19T18:23:38.120Z,8.78
2022-10-19T18:26:07.373Z,8.80
2022-10-19T18:28:34.534Z,8.79
2022-10-19T18:31:13.265Z,8.78
2022-10-19T18:33:40.426Z,8.69
2022-10-19T18:36:08.872Z,8.67
2022-10-19T18:38:35.587Z,8.63
2022-10-19T18:41:03.890Z,8.63
2022-10-19T18:43:30.692Z,8.51
2022-10-19T18:45:59.157Z,8.60
2022-10-19T18:48:27.551Z,8.52
2022-10-19T18:50:54.790Z,8.55
2022-10-19T18:53:22.050Z,8.49
2022-10-19T18:56:05.887Z,8.47
2022-10-19T18:58:33.810Z,8.42
2022-10-19T19:01:13.660Z,8.37
2022-10-19T19:03:42.502Z,8.32
2022-10-19T19:06:14.749Z,8.31
2022-10-19T19:08:41.706Z,8.25
2022-10-19T19:11:14.153Z,8.26
2022-10-19T19:13:41.381Z,8.07
2022-10-19T19:16:09.444Z,8.25
2022-10-19T19:18:36.181Z,8.26
2022-10-19T19:21:04.215Z,8.15
2022-10-19T19:23:31.142Z,8.16
2022-10-19T19:25:57.835Z,8.17
2022-10-19T19:28:24.701Z,8.10
2022-10-19T19:30:51.316Z,8.07
2022-10-19T19:33:17.993Z,8.02
2022-10-19T19:35:45.908Z,8.00
2022-10-19T19:38:13.649Z,8.04
2022-10-19T19:40:45.186Z,7.93
2022-10-19T19:43:13.481Z,7.91
2022-10-19T19:45:41.200Z,7.94
2022-10-19T19:48:09.034Z,7.92
2022-10-19T19:50:37.521Z,7.93
2022-10-19T19:53:04.963Z,7.94
2022-10-19T19:55:36.783Z,7.92
2022-10-19T19:58:05.630Z,7.86
2022-10-19T20:00:32.348Z,7.87
2022-10-19T20:02:59.822Z,7.89
2022-10-19T20:05:27.188Z,7.82
2022-10-19T20:07:53.890Z,7.78
2022-10-19T20:10:20.567Z,7.64
2022-10-19T20:12:47.755Z,7.81
2022-10-19T20:15:16.561Z,7.74
2022-10-19T20:17:43.517Z,7.69
2022-10-19T20:20:11.610Z,7.73
2022-10-19T20:22:38.434Z,7.71
2022-10-19T20:25:05.526Z,7.70
2022-10-19T20:27:35.588Z,7.60
2022-10-19T20:30:02.540Z,7.72
2022-10-19T20:32:29.583Z,7.62
2022-10-19T20:34:56.201Z,7.64
2022-10-19T20:37:23.620Z,7.61
2022-10-19T20:39:50.348Z,7.62
2022-10-19T20:42:18.291Z,7.61
2022-10-19T20:44:45.163Z,7.68
2022-10-19T20:47:12.118Z,7.46
2022-10-19T20:49:38.753Z,7.52
2022-10-19T20:52:05.408Z,7.66
